Time;durP1;ratioP1;P1;durP2;ratioP2;P2;SDS_P1;SDS_P2;PMS_P1;PMS_P2;Temp;Humidity;BMP_temperature;BMP_pressure;BME280_temperature;BME280_humidity;BME280_pressure;Samples;Min_cycle;Max_cycle;Signal;HPM_P1;HPM_P2
2023/09/17 00:01:08;;;;;;;0.10;0.10;;;;;;;;;;4939984;28;20377;-60
2023/09/17 00:03:34;;;;;;;0.13;0.13;;;;;;;;;;4938725;28;20061;-61
2023/09/17 00:05:59;;;;;;;0.10;0.10;;;;;;;;;;4941039;28;20983;-60
2023/09/17 00:08:24;;;;;;;0.10;0.10;;;;;;;;;;4938694;28;20038;-60
2023/09/17 00:10:50;;;;;;;0.10;0.10;;;;;;;;;;4940679;28;20034;-61
2023/09/17 00:13:16;;;;;;;0.10;0.10;;;;;;;;;;4946142;28;20511;-60
2023/09/17 00:15:41;;;;;;;0.10;0.10;;;;;;;;;;4940756;28;20036;-61
2023/09/17 00:18:06;;;;;;;0.10;0.10;;;;;;;;;;4936545;28;20038;-63
2023/09/17 00:20:32;;;;;;;0.10;0.10;;;;;;;;;;4967979;28;20659;-60
2023/09/17 00:22:59;;;;;;;0.10;0.10;;;;;;;;;;4939581;28;20023;-59
2023/09/17 00:25:25;;;;;;;0.13;0.13;;;;;;;;;;4939653;28;20461;-60
2023/09/17 00:27:50;;;;;;;0.10;0.10;;;;;;;;;;4938744;28;20094;-59
2023/09/17 00:30:16;;;;;;;0.10;0.10;;;;;;;;;;4941086;28;20114;-61
2023/09/17 00:32:41;;;;;;;0.10;0.10;;;;;;;;;;4952363;28;20401;-62
2023/09/17 00:35:07;;;;;;;0.20;0.20;;;;;;;;;;4952798;28;20031;-61
2023/09/17 00:37:32;;;;;;;0.10;0.10;;;;;;;;;;4936504;28;20034;-60
2023/09/17 00:39:57;;;;;;;0.10;0.10;;;;;;;;;;4936336;28;20087;-59
2023/09/17 00:42:23;;;;;;;0.10;0.10;;;;;;;;;;4929927;29;20664;-62
2023/09/17 00:44:48;;;;;;;0.10;0.10;;;;;;;;;;4938664;28;20462;-62
2023/09/17 00:47:14;;;;;;;0.10;0.10;;;;;;;;;;4956205;28;20488;-64
2023/09/17 00:49:39;;;;;;;0.10;0.10;;;;;;;;;;4939106;28;20046;-60
2023/09/17 00:52:11;;;;;;;0.10;0.10;;;;;;;;;;4939969;28;20074;-60
2023/09/17 00:54:36;;;;;;;0.15;0.15;;;;;;;;;;4936905;28;20035;-61
2023/09/17 00:57:02;;;;;;;0.10;0.10;;;;;;;;;;4943992;28;20027;-60
2023/09/17 00:59:28;;;;;;;0.10;0.10;;;;;;;;;;4945393;28;20028;-62
2023/09/17 01:01:53;;;;;;;0.10;0.10;;;;;;;;;;4951823;23;20054;-61
2023/09/17 01:04:19;;;;;;;0.10;0.10;;;;;;;;;;4960644;28;20093;-64
2023/09/17 01:06:45;;;;;;;0.10;0.10;;;;;;;;;;4989128;28;20046;-63
2023/09/17 01:09:11;;;;;;;0.20;0.20;;;;;;;;;;4966861;28;20122;-63
2023/09/17 01:11:36;;;;;;;0.10;0.10;;;;;;;;;;4960568;28;20111;-63
2023/09/17 01:14:15;;;;;;;0.20;0.20;;;;;;;;;;4965359;28;20032;-61
2023/09/17 01:16:41;;;;;;;0.10;0.10;;;;;;;;;;4964120;28;20054;-65
2023/09/17 01:19:09;;;;;;;0.20;0.20;;;;;;;;;;4960379;28;20030;-62
2023/09/17 01:21:37;;;;;;;0.10;0.10;;;;;;;;;;4958001;28;20466;-64
2023/09/17 01:24:17;;;;;;;0.10;0.10;;;;;;;;;;4959556;28;20790;-61
2023/09/17 01:26:44;;;;;;;0.10;0.10;;;;;;;;;;4977057;28;20495;-66
2023/09/17 01:29:12;;;;;;;0.20;0.20;;;;;;;;;;4960076;28;20117;-62
2023/09/17 01:31:38;;;;;;;0.20;0.20;;;;;;;;;;4966037;28;20046;-61
2023/09/17 01:34:03;;;;;;;0.20;0.20;;;;;;;;;;4960027;28;20043;-63
2023/09/17 01:36:33;;;;;;;0.20;0.20;;;;;;;;;;4961091;28;20409;-61
2023/09/17 01:39:04;;;;;;;0.20;0.20;;;;;;;;;;4968883;28;20039;-63
2023/09/17 01:41:31;;;;;;;0.10;0.10;;;;;;;;;;4973235;28;20031;-64
2023/09/17 01:43:56;;;;;;;0.20;0.20;;;;;;;;;;4959515;28;20090;-61
2023/09/17 01:46:22;;;;;;;0.20;0.20;;;;;;;;;;4961638;28;20105;-62
2023/09/17 01:48:49;;;;;;;0.10;0.10;;;;;;;;;;4959792;28;20034;-63
2023/09/17 01:51:15;;;;;;;0.20;0.20;;;;;;;;;;4964257;28;20271;-63
2023/09/17 01:53:41;;;;;;;0.20;0.20;;;;;;;;;;4958604;28;20038;-67
2023/09/17 01:56:07;;;;;;;0.20;0.20;;;;;;;;;;4958282;28;20030;-61
2023/09/17 01:58:33;;;;;;;0.10;0.10;;;;;;;;;;4962047;28;20026;-66
2023/09/17 02:00:59;;;;;;;0.20;0.20;;;;;;;;;;4964814;28;20117;-63
2023/09/17 02:03:25;;;;;;;0.20;0.20;;;;;;;;;;4966063;28;20461;-63
2023/09/17 02:05:50;;;;;;;0.10;0.10;;;;;;;;;;4967224;28;20034;-62
2023/09/17 02:08:15;;;;;;;0.20;0.20;;;;;;;;;;4944874;28;20043;-62
2023/09/17 02:10:41;;;;;;;0.10;0.10;;;;;;;;;;4963140;28;20038;-63
2023/09/17 02:13:06;;;;;;;0.20;0.20;;;;;;;;;;4967075;28;20043;-63
2023/09/17 02:15:32;;;;;;;0.20;0.20;;;;;;;;;;4959615;28;20022;-61
2023/09/17 02:17:57;;;;;;;0.20;0.20;;;;;;;;;;4962317;28;20038;-63
2023/09/17 02:20:22;;;;;;;0.20;0.20;;;;;;;;;;4947700;28;20066;-61
2023/09/17 02:22:48;;;;;;;0.20;0.20;;;;;;;;;;4950185;28;20035;-61
2023/09/17 02:25:13;;;;;;;0.20;0.20;;;;;;;;;;4959351;28;20020;-62
2023/09/17 02:27:39;;;;;;;0.20;0.20;;;;;;;;;;4959641;28;20097;-63
2023/09/17 02:30:05;;;;;;;0.20;0.20;;;;;;;;;;4959827;28;20464;-61
2023/09/17 02:32:30;;;;;;;0.20;0.20;;;;;;;;;;4962171;28;20039;-61
2023/09/17 02:34:56;;;;;;;0.20;0.20;;;;;;;;;;4960827;28;20134;-62
2023/09/17 02:37:22;;;;;;;0.20;0.20;;;;;;;;;;4960255;28;20035;-66
2023/09/17 02:39:47;;;;;;;0.10;0.10;;;;;;;;;;4966160;28;20070;-63
2023/09/17 02:42:12;;;;;;;0.20;0.20;;;;;;;;;;4956399;28;20178;-63
2023/09/17 02:44:37;;;;;;;0.20;0.20;;;;;;;;;;4964797;28;20035;-63
2023/09/17 02:47:03;;;;;;;0.10;0.10;;;;;;;;;;4961823;28;20023;-65
2023/09/17 02:49:28;;;;;;;0.20;0.20;;;;;;;;;;4957923;28;20166;-64
2023/09/17 02:51:54;;;;;;;0.20;0.20;;;;;;;;;;4965335;28;20101;-62
2023/09/17 02:54:19;;;;;;;0.20;0.20;;;;;;;;;;4976672;28;20033;-63
2023/09/17 02:56:46;;;;;;;0.20;0.20;;;;;;;;;;4965313;28;20027;-63
2023/09/17 02:59:11;;;;;;;0.20;0.20;;;;;;;;;;4957530;28;20378;-63
2023/09/17 03:01:37;;;;;;;0.20;0.20;;;;;;;;;;4958972;28;20851;-63
2023/09/17 03:04:02;;;;;;;0.20;0.20;;;;;;;;;;4964889;28;20101;-62
2023/09/17 03:06:30;;;;;;;0.20;0.20;;;;;;;;;;4965845;28;20034;-62
2023/09/17 03:08:55;;;;;;;0.10;0.10;;;;;;;;;;4958133;28;20080;-63
2023/09/17 03:11:21;;;;;;;0.10;0.10;;;;;;;;;;4960838;28;20570;-63
2023/09/17 03:13:47;;;;;;;0.20;0.20;;;;;;;;;;4962840;28;20054;-60
2023/09/17 03:16:15;;;;;;;0.20;0.20;;;;;;;;;;4964075;28;20696;-62
2023/09/17 03:18:44;;;;;;;0.20;0.20;;;;;;;;;;4959879;28;20054;-64
2023/09/17 03:21:11;;;;;;;0.20;0.20;;;;;;;;;;4964948;28;20023;-62
2023/09/17 03:23:36;;;;;;;0.20;0.20;;;;;;;;;;4963774;28;20488;-63
2023/09/17 03:26:03;;;;;;;0.10;0.10;;;;;;;;;;4959675;28;20117;-63
2023/09/17 03:28:29;;;;;;;0.20;0.20;;;;;;;;;;4961987;28;20940;-62
2023/09/17 03:30:54;;;;;;;0.10;0.10;;;;;;;;;;4956423;28;20114;-62
2023/09/17 03:33:20;;;;;;;0.20;0.20;;;;;;;;;;4958698;28;20046;-62
2023/09/17 03:35:46;;;;;;;0.20;0.20;;;;;;;;;;4959933;28;20143;-62
2023/09/17 03:38:12;;;;;;;0.20;0.20;;;;;;;;;;4963482;28;20449;-63
2023/09/17 03:40:38;;;;;;;0.20;0.20;;;;;;;;;;4959842;28;20473;-62
2023/09/17 03:43:04;;;;;;;0.20;0.20;;;;;;;;;;4957129;28;20023;-61
2023/09/17 03:45:29;;;;;;;0.20;0.20;;;;;;;;;;4959946;28;20039;-64
2023/09/17 03:47:54;;;;;;;0.20;0.20;;;;;;;;;;4964281;28;20066;-62
2023/09/17 03:50:20;;;;;;;0.20;0.20;;;;;;;;;;4960579;28;20183;-61
2023/09/17 03:52:46;;;;;;;0.20;0.20;;;;;;;;;;4962607;28;20050;-63
2023/09/17 03:55:12;;;;;;;0.20;0.20;;;;;;;;;;4954664;28;20034;-62
2023/09/17 03:57:38;;;;;;;0.20;0.20;;;;;;;;;;4962441;28;20448;-61
2023/09/17 04:00:10;;;;;;;0.20;0.20;;;;;;;;;;4958199;28;20045;-62
2023/09/17 04:02:39;;;;;;;0.10;0.10;;;;;;;;;;4956694;28;20405;-64
2023/09/17 04:05:12;;;;;;;0.20;0.20;;;;;;;;;;4930690;28;20055;-62
2023/09/17 04:07:38;;;;;;;0.20;0.20;;;;;;;;;;4962544;28;20035;-64
2023/09/17 04:10:06;;;;;;;0.20;0.20;;;;;;;;;;4956438;28;20043;-63
2023/09/17 04:12:36;;;;;;;0.20;0.20;;;;;;;;;;4945002;28;20469;-62
2023/09/17 04:15:13;;;;;;;0.20;0.20;;;;;;;;;;4954330;28;20648;-63
2023/09/17 04:17:38;;;;;;;0.20;0.20;;;;;;;;;;4958004;28;20037;-63
2023/09/17 04:20:09;;;;;;;0.20;0.20;;;;;;;;;;4957002;28;20331;-65
2023/09/17 04:22:35;;;;;;;0.20;0.20;;;;;;;;;;4956129;28;20117;-63
2023/09/17 04:25:00;;;;;;;0.20;0.20;;;;;;;;;;4953366;28;20118;-64
2023/09/17 04:27:26;;;;;;;0.20;0.20;;;;;;;;;;4955000;28;20031;-62
2023/09/17 04:29:52;;;;;;;0.20;0.20;;;;;;;;;;4965974;28;20043;-62
2023/09/17 04:32:18;;;;;;;0.20;0.20;;;;;;;;;;4958887;28;20031;-62
2023/09/17 04:34:44;;;;;;;0.20;0.20;;;;;;;;;;4960388;28;20042;-62
2023/09/17 04:37:10;;;;;;;0.20;0.20;;;;;;;;;;4961199;28;20507;-62
2023/09/17 04:39:35;;;;;;;0.20;0.20;;;;;;;;;;4962919;28;20030;-64
2023/09/17 04:42:01;;;;;;;0.20;0.20;;;;;;;;;;4958573;28;20491;-62
2023/09/17 04:44:28;;;;;;;0.20;0.20;;;;;;;;;;4954282;28;20093;-63
2023/09/17 04:46:53;;;;;;;;;;;;;;;;;;4942302;28;20023;-63
2023/09/17 04:49:19;;;;;;;0.20;0.20;;;;;;;;;;4959219;28;19922;-61
2023/09/17 04:51:45;;;;;;;0.20;0.20;;;;;;;;;;4960874;28;20030;-62
2023/09/17 04:54:10;;;;;;;0.20;0.20;;;;;;;;;;4963460;28;20042;-63
2023/09/17 04:56:37;;;;;;;0.20;0.20;;;;;;;;;;4956943;28;20022;-64
2023/09/17 04:59:03;;;;;;;0.20;0.20;;;;;;;;;;4945300;28;20381;-64
2023/09/17 05:01:29;;;;;;;0.20;0.20;;;;;;;;;;4959434;28;20045;-61
2023/09/17 05:03:54;;;;;;;0.20;0.20;;;;;;;;;;4958976;28;20116;-63
2023/09/17 05:06:20;;;;;;;0.20;0.20;;;;;;;;;;4958302;28;20034;-65
2023/09/17 05:08:46;;;;;;;0.20;0.20;;;;;;;;;;4957432;28;20035;-65
2023/09/17 05:11:11;;;;;;;0.20;0.20;;;;;;;;;;4963444;28;20042;-63
2023/09/17 05:13:38;;;;;;;0.30;0.30;;;;;;;;;;4963551;28;20023;-62
2023/09/17 05:16:06;;;;;;;0.20;0.20;;;;;;;;;;4960497;28;20086;-62
2023/09/17 05:18:31;;;;;;;0.20;0.20;;;;;;;;;;4956123;28;20046;-62
2023/09/17 05:20:57;;;;;;;0.20;0.20;;;;;;;;;;4955569;28;20031;-63
2023/09/17 05:23:23;;;;;;;0.27;0.27;;;;;;;;;;4956134;28;20040;-61
2023/09/17 05:25:55;;;;;;;0.22;0.22;;;;;;;;;;4942029;28;20691;-64
2023/09/17 05:28:21;;;;;;;0.20;0.20;;;;;;;;;;4945520;28;20034;-62
2023/09/17 05:30:46;;;;;;;0.20;0.20;;;;;;;;;;4962796;28;20366;-61
2023/09/17 05:33:11;;;;;;;0.20;0.20;;;;;;;;;;4957076;28;20090;-62
2023/09/17 05:35:38;;;;;;;0.30;0.30;;;;;;;;;;4957400;28;20023;-63
2023/09/17 05:38:04;;;;;;;0.20;0.20;;;;;;;;;;4954422;28;20039;-62
2023/09/17 05:40:29;;;;;;;0.20;0.20;;;;;;;;;;4957817;28;20081;-64
2023/09/17 05:42:56;;;;;;;0.20;0.20;;;;;;;;;;4959362;28;20070;-65
2023/09/17 05:45:21;;;;;;;0.30;0.30;;;;;;;;;;4953728;28;20626;-64
2023/09/17 05:47:48;;;;;;;0.20;0.20;;;;;;;;;;4957685;28;20746;-64
2023/09/17 05:50:14;;;;;;;0.20;0.20;;;;;;;;;;4962028;28;20046;-63
2023/09/17 05:52:40;;;;;;;0.20;0.20;;;;;;;;;;4959683;28;20033;-62
2023/09/17 05:55:06;;;;;;;0.20;0.20;;;;;;;;;;4964411;28;20036;-62
2023/09/17 05:57:32;;;;;;;0.20;0.20;;;;;;;;;;4961984;28;20035;-63
2023/09/17 05:59:58;;;;;;;0.20;0.20;;;;;;;;;;4965423;28;20035;-62
2023/09/17 06:02:24;;;;;;;0.10;0.10;;;;;;;;;;4938698;28;20489;-63
2023/09/17 06:04:53;;;;;;;0.20;0.20;;;;;;;;;;4960332;28;20102;-62
2023/09/17 06:07:21;;;;;;;0.20;0.20;;;;;;;;;;4962602;28;20023;-63
2023/09/17 06:09:47;;;;;;;0.20;0.20;;;;;;;;;;4959692;28;20074;-64
2023/09/17 06:12:12;;;;;;;0.20;0.20;;;;;;;;;;4957375;28;20498;-64
2023/09/17 06:14:38;;;;;;;0.20;0.20;;;;;;;;;;4963913;28;20043;-65
2023/09/17 06:17:04;;;;;;;0.20;0.20;;;;;;;;;;4964023;28;20034;-63
2023/09/17 06:19:30;;;;;;;0.20;0.20;;;;;;;;;;4963088;28;20051;-63
2023/09/17 06:21:55;;;;;;;0.20;0.20;;;;;;;;;;4966500;28;20027;-62
2023/09/17 06:24:21;;;;;;;0.20;0.20;;;;;;;;;;4961580;28;20034;-62
2023/09/17 06:26:46;;;;;;;0.20;0.20;;;;;;;;;;4958865;28;20392;-63
2023/09/17 06:29:11;;;;;;;0.20;0.20;;;;;;;;;;4962396;28;20404;-64
2023/09/17 06:31:37;;;;;;;0.20;0.20;;;;;;;;;;4955852;28;20412;-63
2023/09/17 06:34:03;;;;;;;0.20;0.20;;;;;;;;;;4960330;28;20042;-64
2023/09/17 06:36:29;;;;;;;0.20;0.20;;;;;;;;;;4943236;28;20062;-65
2023/09/17 06:38:54;;;;;;;0.20;0.20;;;;;;;;;;4961791;28;20485;-63
2023/09/17 06:41:21;;;;;;;0.20;0.20;;;;;;;;;;4960459;28;20030;-64
2023/09/17 06:43:46;;;;;;;0.20;0.20;;;;;;;;;;4957435;28;20067;-63
2023/09/17 06:46:12;;;;;;;0.20;0.20;;;;;;;;;;4959860;28;20315;-64
2023/09/17 06:48:37;;;;;;;0.15;0.15;;;;;;;;;;4957282;28;20528;-63
2023/09/17 06:51:02;;;;;;;0.20;0.20;;;;;;;;;;4957250;28;20538;-63
2023/09/17 06:53:27;;;;;;;0.20;0.20;;;;;;;;;;4961555;28;20027;-64
2023/09/17 06:55:53;;;;;;;0.20;0.20;;;;;;;;;;4959555;28;20057;-63
2023/09/17 06:58:18;;;;;;;0.20;0.20;;;;;;;;;;4957077;28;20031;-63
2023/09/17 07:00:44;;;;;;;0.20;0.20;;;;;;;;;;4956457;28;20042;-62
2023/09/17 07:03:09;;;;;;;0.10;0.10;;;;;;;;;;4959083;28;20050;-62
2023/09/17 07:05:34;;;;;;;0.20;0.20;;;;;;;;;;4956875;28;20452;-61
2023/09/17 07:08:00;;;;;;;0.20;0.20;;;;;;;;;;4958045;28;20397;-62
2023/09/17 07:10:25;;;;;;;0.20;0.20;;;;;;;;;;4959216;28;20114;-63
2023/09/17 07:12:51;;;;;;;0.20;0.20;;;;;;;;;;4958149;28;20031;-63
2023/09/17 07:15:18;;;;;;;0.10;0.10;;;;;;;;;;4967766;28;20035;-64
2023/09/17 07:17:43;;;;;;;0.17;0.17;;;;;;;;;;4957947;28;20042;-62
2023/09/17 07:20:09;;;;;;;0.10;0.10;;;;;;;;;;4959017;28;20117;-62
2023/09/17 07:22:34;;;;;;;0.10;0.10;;;;;;;;;;4955849;28;20019;-64
2023/09/17 07:25:00;;;;;;;0.10;0.10;;;;;;;;;;4958620;28;20049;-63
2023/09/17 07:27:26;;;;;;;0.10;0.10;;;;;;;;;;4956771;28;20118;-63
2023/09/17 07:29:52;;;;;;;0.10;0.10;;;;;;;;;;4964318;28;20884;-62
2023/09/17 07:32:18;;;;;;;0.10;0.10;;;;;;;;;;4957799;28;20059;-64
2023/09/17 07:34:43;;;;;;;0.10;0.10;;;;;;;;;;4957703;28;20031;-62
2023/09/17 07:37:08;;;;;;;0.10;0.10;;;;;;;;;;4956432;28;20030;-63
2023/09/17 07:39:34;;;;;;;0.10;0.10;;;;;;;;;;4956318;28;20086;-65
2023/09/17 07:41:59;;;;;;;0.10;0.10;;;;;;;;;;4959330;28;20038;-64
2023/09/17 07:44:24;;;;;;;0.10;0.10;;;;;;;;;;4958574;28;20027;-62
2023/09/17 07:46:50;;;;;;;0.10;0.10;;;;;;;;;;4956246;28;20122;-65
2023/09/17 07:49:15;;;;;;;0.10;0.10;;;;;;;;;;4959429;28;20038;-62
2023/09/17 07:51:41;;;;;;;0.10;0.10;;;;;;;;;;4959947;28;20085;-63
2023/09/17 07:54:06;;;;;;;0.10;0.10;;;;;;;;;;4958434;28;20381;-63
2023/09/17 07:56:31;;;;;;;0.10;0.10;;;;;;;;;;4955717;28;20034;-62
2023/09/17 07:58:56;;;;;;;0.10;0.10;;;;;;;;;;4955216;28;20074;-62
2023/09/17 08:01:22;;;;;;;0.10;0.10;;;;;;;;;;4955655;28;20043;-63
2023/09/17 08:03:47;;;;;;;0.10;0.10;;;;;;;;;;4958393;28;20034;-61
2023/09/17 08:06:12;;;;;;;0.10;0.10;;;;;;;;;;4955476;28;20106;-65
2023/09/17 08:08:38;;;;;;;0.10;0.10;;;;;;;;;;4959698;28;20039;-61
2023/09/17 08:11:03;;;;;;;0.10;0.10;;;;;;;;;;4960188;28;20066;-64
2023/09/17 08:13:28;;;;;;;0.10;0.10;;;;;;;;;;4956739;28;20110;-63
2023/09/17 08:15:54;;;;;;;0.10;0.10;;;;;;;;;;4956594;28;20028;-63
2023/09/17 08:18:19;;;;;;;0.10;0.10;;;;;;;;;;4952361;28;20035;-64
2023/09/17 08:20:44;;;;;;;0.10;0.10;;;;;;;;;;4957451;28;20186;-64
2023/09/17 08:23:10;;;;;;;0.10;0.10;;;;;;;;;;4945767;28;20570;-62
2023/09/17 08:25:35;;;;;;;0.00;0.00;;;;;;;;;;4949744;28;20033;-62
2023/09/17 08:28:00;;;;;;;0.10;0.10;;;;;;;;;;4948645;28;20046;-64
2023/09/17 08:30:26;;;;;;;0.10;0.10;;;;;;;;;;4951065;28;20090;-65
2023/09/17 08:32:51;;;;;;;0.10;0.10;;;;;;;;;;4959035;28;20026;-66
2023/09/17 08:35:18;;;;;;;0.00;0.00;;;;;;;;;;4950436;28;20026;-62
2023/09/17 08:37:43;;;;;;;0.00;0.00;;;;;;;;;;4956404;28;20046;-64
2023/09/17 08:40:13;;;;;;;0.00;0.00;;;;;;;;;;4954844;28;20030;-62
2023/09/17 08:42:41;;;;;;;0.00;0.00;;;;;;;;;;4954840;28;20609;-64
2023/09/17 08:45:07;;;;;;;0.00;0.00;;;;;;;;;;4960086;28;20505;-63
2023/09/17 08:47:33;;;;;;;0.00;0.00;;;;;;;;;;4955461;28;20569;-63
2023/09/17 08:49:58;;;;;;;0.10;0.10;;;;;;;;;;4960489;28;20044;-62
2023/09/17 08:52:25;;;;;;;0.10;0.10;;;;;;;;;;4957990;28;20022;-64
2023/09/17 08:54:51;;;;;;;0.00;0.00;;;;;;;;;;4953483;28;20027;-62
2023/09/17 08:57:18;;;;;;;0.05;0.05;;;;;;;;;;4959532;28;20031;-62
2023/09/17 08:59:45;;;;;;;;;;;;;;;;;;4956425;28;20026;-62
2023/09/17 09:02:31;;;;;;;0.10;0.10;;;;;;;;;;4956182;28;20320;-62
2023/09/17 09:04:57;;;;;;;0.00;0.00;;;;;;;;;;4953592;28;20417;-62
2023/09/17 09:07:23;;;;;;;0.10;0.10;;;;;;;;;;4957806;28;20022;-63
2023/09/17 09:09:49;;;;;;;0.10;0.10;;;;;;;;;;4960387;28;20081;-65
2023/09/17 09:12:15;;;;;;;0.10;0.10;;;;;;;;;;4952630;28;20090;-65
2023/09/17 09:14:42;;;;;;;0.03;0.03;;;;;;;;;;4949479;28;20046;-62
2023/09/17 09:17:07;;;;;;;0.00;0.00;;;;;;;;;;4964352;28;20465;-62
2023/09/17 09:19:32;;;;;;;0.00;0.00;;;;;;;;;;4955044;28;20041;-62
2023/09/17 09:21:58;;;;;;;0.00;0.00;;;;;;;;;;4964049;28;20093;-63
2023/09/17 09:24:24;;;;;;;0.10;0.10;;;;;;;;;;4954330;28;20019;-63
2023/09/17 09:26:49;;;;;;;0.00;0.00;;;;;;;;;;4959651;28;20023;-62
2023/09/17 09:29:14;;;;;;;0.00;0.00;;;;;;;;;;4964389;28;20042;-63
2023/09/17 09:31:40;;;;;;;0.00;0.00;;;;;;;;;;4957206;28;20050;-62
2023/09/17 09:34:06;;;;;;;0.00;0.00;;;;;;;;;;4959556;28;20053;-63
2023/09/17 09:36:33;;;;;;;0.00;0.00;;;;;;;;;;4959105;28;20039;-62
2023/09/17 09:38:59;;;;;;;0.00;0.00;;;;;;;;;;4960331;28;20038;-64
2023/09/17 09:41:25;;;;;;;0.00;0.00;;;;;;;;;;4961490;28;20039;-63
2023/09/17 09:43:51;;;;;;;0.00;0.00;;;;;;;;;;4958093;28;20019;-62
2023/09/17 09:46:17;;;;;;;0.00;0.00;;;;;;;;;;4965148;28;20034;-62
2023/09/17 09:48:42;;;;;;;0.00;0.00;;;;;;;;;;4963384;28;20513;-62
2023/09/17 09:51:09;;;;;;;0.00;0.00;;;;;;;;;;4956718;28;20032;-62
2023/09/17 09:53:34;;;;;;;0.00;0.00;;;;;;;;;;4962082;28;20034;-62
2023/09/17 09:56:00;;;;;;;0.00;0.00;;;;;;;;;;4956340;28;20464;-63
2023/09/17 09:58:25;;;;;;;0.00;0.00;;;;;;;;;;4958965;28;20036;-65
2023/09/17 10:00:51;;;;;;;0.00;0.00;;;;;;;;;;4956500;28;20428;-62
2023/09/17 10:03:20;;;;;;;0.00;0.00;;;;;;;;;;4951671;28;20031;-61
2023/09/17 10:05:46;;;;;;;0.00;0.00;;;;;;;;;;4962875;28;20031;-64
2023/09/17 10:08:12;;;;;;;0.00;0.00;;;;;;;;;;4959785;28;20037;-62
2023/09/17 10:10:37;;;;;;;0.00;0.00;;;;;;;;;;4959038;28;20171;-64
2023/09/17 10:13:05;;;;;;;0.00;0.00;;;;;;;;;;4960250;28;20385;-62
2023/09/17 10:15:31;;;;;;;0.00;0.00;;;;;;;;;;4955850;28;20038;-61
2023/09/17 10:17:57;;;;;;;0.00;0.00;;;;;;;;;;4962968;28;20102;-63
2023/09/17 10:20:23;;;;;;;0.00;0.00;;;;;;;;;;4958403;28;20450;-62
2023/09/17 10:22:48;;;;;;;0.00;0.00;;;;;;;;;;4959510;28;20031;-63
2023/09/17 10:25:14;;;;;;;0.00;0.00;;;;;;;;;;4957636;28;20845;-64
2023/09/17 10:27:42;;;;;;;0.00;0.00;;;;;;;;;;4954299;28;20493;-64
2023/09/17 10:30:08;;;;;;;0.00;0.00;;;;;;;;;;4967065;28;20063;-64
2023/09/17 10:32:34;;;;;;;0.00;0.00;;;;;;;;;;4956317;28;20100;-61
2023/09/17 10:35:00;;;;;;;0.00;0.00;;;;;;;;;;4960712;28;20058;-64
2023/09/17 10:37:26;;;;;;;0.00;0.00;;;;;;;;;;4958392;28;20029;-61
2023/09/17 10:39:52;;;;;;;;;;;;;;;;;;4953022;28;20083;-63
2023/09/17 10:42:19;;;;;;;0.00;0.00;;;;;;;;;;4961989;28;19918;-61
2023/09/17 10:44:46;;;;;;;0.00;0.00;;;;;;;;;;4955261;28;20026;-62
2023/09/17 10:47:12;;;;;;;0.00;0.00;;;;;;;;;;4963112;28;20422;-66
2023/09/17 10:49:40;;;;;;;0.00;0.00;;;;;;;;;;4948586;28;20645;-62
2023/09/17 10:52:07;;;;;;;0.00;0.00;;;;;;;;;;4959939;28;20031;-61
2023/09/17 10:54:33;;;;;;;0.00;0.00;;;;;;;;;;4963616;28;20070;-63
2023/09/17 10:57:01;;;;;;;0.00;0.00;;;;;;;;;;4957377;28;20512;-63
2023/09/17 10:59:27;;;;;;;0.00;0.00;;;;;;;;;;4958130;28;20055;-62
2023/09/17 11:01:53;;;;;;;0.00;0.00;;;;;;;;;;4956444;28;20110;-63
2023/09/17 11:04:21;;;;;;;0.00;0.00;;;;;;;;;;4937812;28;20141;-62
2023/09/17 11:06:47;;;;;;;0.00;0.00;;;;;;;;;;4962090;28;20061;-64
2023/09/17 11:09:13;;;;;;;0.00;0.00;;;;;;;;;;4953442;28;20042;-65
2023/09/17 11:11:40;;;;;;;0.00;0.00;;;;;;;;;;4954396;28;20027;-62
2023/09/17 11:14:06;;;;;;;0.00;0.00;;;;;;;;;;4961725;28;20105;-62
2023/09/17 11:16:32;;;;;;;0.00;0.00;;;;;;;;;;4957719;28;20495;-62
2023/09/17 11:19:11;;;;;;;0.00;0.00;;;;;;;;;;4968064;28;20033;-62
2023/09/17 11:21:38;;;;;;;0.00;0.00;;;;;;;;;;4954225;28;20027;-65
2023/09/17 11:24:05;;;;;;;0.00;0.00;;;;;;;;;;4956840;28;20587;-62
2023/09/17 11:26:31;;;;;;;0.00;0.00;;;;;;;;;;4963846;28;20033;-64
2023/09/17 11:28:57;;;;;;;0.00;0.00;;;;;;;;;;4955745;28;20039;-64
2023/09/17 11:31:22;;;;;;;;;;;;;;;;;;4966645;28;20018;-63
2023/09/17 11:33:48;;;;;;;;;;;;;;;;;;4951574;28;20049;-62
2023/09/17 11:36:13;;;;;;;0.00;0.00;;;;;;;;;;4954991;28;19910;-65
2023/09/17 11:38:44;;;;;;;0.00;0.00;;;;;;;;;;4963415;28;20035;-62
2023/09/17 11:41:10;;;;;;;0.00;0.00;;;;;;;;;;4958484;28;20023;-62
2023/09/17 11:43:37;;;;;;;0.00;0.00;;;;;;;;;;4957571;28;20034;-63
2023/09/17 11:46:08;;;;;;;0.00;0.00;;;;;;;;;;4952388;28;20018;-66
2023/09/17 11:48:36;;;;;;;0.00;0.00;;;;;;;;;;4953714;28;20505;-62
2023/09/17 11:51:22;;;;;;;0.00;0.00;;;;;;;;;;4955587;28;20085;-63
2023/09/17 11:53:51;;;;;;;0.00;0.00;;;;;;;;;;4955650;28;20046;-63
2023/09/17 11:56:16;;;;;;;0.00;0.00;;;;;;;;;;4958873;28;20436;-65
2023/09/17 11:58:42;;;;;;;0.00;0.00;;;;;;;;;;4961443;28;20031;-63
2023/09/17 12:01:07;;;;;;;0.00;0.00;;;;;;;;;;4953701;28;20050;-65
2023/09/17 12:03:33;;;;;;;0.00;0.00;;;;;;;;;;4962026;28;20064;-63
2023/09/17 12:05:58;;;;;;;0.00;0.00;;;;;;;;;;4958475;28;20038;-62
2023/09/17 12:08:23;;;;;;;0.00;0.00;;;;;;;;;;4956149;28;20097;-63
2023/09/17 12:10:52;;;;;;;0.00;0.00;;;;;;;;;;4960532;28;20047;-65
2023/09/17 12:13:19;;;;;;;0.00;0.00;;;;;;;;;;4954481;28;20019;-64
2023/09/17 12:15:45;;;;;;;0.00;0.00;;;;;;;;;;4962124;28;20034;-63
2023/09/17 12:18:10;;;;;;;0.00;0.00;;;;;;;;;;4957765;28;20026;-64
2023/09/17 12:20:59;;;;;;;0.00;0.00;;;;;;;;;;4955850;28;20086;-62
2023/09/17 12:23:37;;;;;;;0.00;0.00;;;;;;;;;;4957803;28;20023;-62
2023/09/17 12:26:05;;;;;;;0.00;0.00;;;;;;;;;;4957414;28;20061;-65
2023/09/17 12:28:31;;;;;;;0.00;0.00;;;;;;;;;;4954082;28;20035;-64
2023/09/17 12:30:57;;;;;;;0.00;0.00;;;;;;;;;;4961921;28;20096;-66
2023/09/17 12:33:22;;;;;;;0.00;0.00;;;;;;;;;;4951161;28;20035;-64
2023/09/17 12:35:48;;;;;;;0.00;0.00;;;;;;;;;;4959444;28;20416;-63
2023/09/17 12:38:14;;;;;;;0.00;0.00;;;;;;;;;;4939187;28;20109;-64
2023/09/17 12:40:40;;;;;;;0.00;0.00;;;;;;;;;;4952657;28;20637;-62
2023/09/17 12:43:06;;;;;;;0.00;0.00;;;;;;;;;;4954271;28;20062;-63
2023/09/17 12:45:31;;;;;;;;;;;;;;;;;;4956189;28;20571;-62
2023/09/17 12:47:57;;;;;;;0.00;0.00;;;;;;;;;;4963938;28;19914;-63
2023/09/17 12:50:22;;;;;;;0.00;0.00;;;;;;;;;;4954259;28;20436;-63
2023/09/17 12:52:48;;;;;;;0.00;0.00;;;;;;;;;;4954570;28;20015;-64
2023/09/17 12:55:13;;;;;;;0.00;0.00;;;;;;;;;;4960912;28;20110;-65
2023/09/17 12:57:39;;;;;;;0.00;0.00;;;;;;;;;;4951425;28;20029;-62
2023/09/17 13:00:06;;;;;;;0.00;0.00;;;;;;;;;;4959947;28;20042;-64
2023/09/17 13:02:33;;;;;;;0.00;0.00;;;;;;;;;;4940633;28;20031;-64
2023/09/17 13:04:58;;;;;;;0.00;0.00;;;;;;;;;;4950153;28;20118;-63
2023/09/17 13:07:25;;;;;;;0.00;0.00;;;;;;;;;;4960847;28;20761;-62
2023/09/17 13:09:57;;;;;;;0.00;0.00;;;;;;;;;;4954162;28;20043;-64
2023/09/17 13:12:23;;;;;;;0.00;0.00;;;;;;;;;;4957750;28;20630;-63
2023/09/17 13:14:51;;;;;;;0.00;0.00;;;;;;;;;;4957869;28;20042;-66
2023/09/17 13:17:17;;;;;;;0.00;0.00;;;;;;;;;;4956832;28;20057;-64
2023/09/17 13:19:42;;;;;;;0.00;0.00;;;;;;;;;;4958393;28;20850;-63
2023/09/17 13:22:08;;;;;;;0.00;0.00;;;;;;;;;;4958287;28;20500;-65
2023/09/17 13:24:34;;;;;;;0.00;0.00;;;;;;;;;;4955567;28;20591;-67
2023/09/17 13:27:05;;;;;;;0.00;0.00;;;;;;;;;;4953271;28;20023;-65
2023/09/17 13:29:39;;;;;;;0.00;0.00;;;;;;;;;;4952390;28;20140;-63
2023/09/17 13:32:07;;;;;;;0.00;0.00;;;;;;;;;;4955172;28;20304;-65
2023/09/17 13:34:32;;;;;;;0.00;0.00;;;;;;;;;;4963162;28;20300;-64
2023/09/17 13:36:57;;;;;;;0.00;0.00;;;;;;;;;;4948460;28;20481;-64
2023/09/17 13:39:23;;;;;;;0.00;0.00;;;;;;;;;;4956888;28;20042;-63
2023/09/17 13:41:49;;;;;;;0.00;0.00;;;;;;;;;;4953036;28;20114;-67
2023/09/17 13:44:14;;;;;;;0.00;0.00;;;;;;;;;;4957417;28;20029;-66
2023/09/17 13:46:45;;;;;;;0.00;0.00;;;;;;;;;;4953808;28;20058;-64
2023/09/17 13:49:10;;;;;;;0.00;0.00;;;;;;;;;;4955493;28;20565;-63
2023/09/17 13:51:36;;;;;;;0.00;0.00;;;;;;;;;;4955460;28;20158;-64
2023/09/17 13:54:01;;;;;;;0.00;0.00;;;;;;;;;;4951080;28;20369;-63
2023/09/17 13:56:26;;;;;;;0.00;0.00;;;;;;;;;;4955692;28;20034;-64
2023/09/17 13:58:51;;;;;;;0.00;0.00;;;;;;;;;;4949625;28;20022;-64
2023/09/17 14:01:17;;;;;;;0.00;0.00;;;;;;;;;;4951269;28;20412;-63
2023/09/17 14:03:42;;;;;;;0.00;0.00;;;;;;;;;;4956416;28;20047;-63
2023/09/17 14:06:09;;;;;;;0.00;0.00;;;;;;;;;;4950451;28;20041;-66
2023/09/17 14:08:35;;;;;;;0.00;0.00;;;;;;;;;;4966923;28;20031;-63
2023/09/17 14:11:00;;;;;;;0.00;0.00;;;;;;;;;;4955017;28;20023;-64
2023/09/17 14:13:26;;;;;;;0.00;0.00;;;;;;;;;;4953843;28;20611;-64
2023/09/17 14:15:51;;;;;;;0.00;0.00;;;;;;;;;;4960523;28;20035;-64
2023/09/17 14:18:16;;;;;;;0.00;0.00;;;;;;;;;;4957083;28;20023;-63
2023/09/17 14:20:42;;;;;;;0.00;0.00;;;;;;;;;;4963571;28;20035;-65
2023/09/17 14:23:07;;;;;;;0.00;0.00;;;;;;;;;;4953666;28;20043;-64
2023/09/17 14:25:33;;;;;;;0.00;0.00;;;;;;;;;;4956686;28;20027;-63
2023/09/17 14:27:58;;;;;;;0.00;0.00;;;;;;;;;;4958723;28;20038;-65
2023/09/17 14:30:26;;;;;;;0.00;0.00;;;;;;;;;;4952529;28;20798;-65
2023/09/17 14:32:52;;;;;;;0.00;0.00;;;;;;;;;;4965884;28;20034;-65
2023/09/17 14:35:17;;;;;;;0.00;0.00;;;;;;;;;;4956667;28;20022;-64
2023/09/17 14:37:43;;;;;;;0.00;0.00;;;;;;;;;;4956415;28;20031;-63
2023/09/17 14:40:09;;;;;;;0.00;0.00;;;;;;;;;;4957396;28;20035;-65